createdAt,value
2023-04-02T00:01:55.658Z,1.02
2023-04-02T00:04:30.152Z,0.85
2023-04-02T00:07:30.864Z,0.65
2023-04-02T00:10:04.196Z,0.80
2023-04-02T00:12:33.160Z,0.63
2023-04-02T00:15:04.573Z,0.57
2023-04-02T00:17:35.234Z,0.93
2023-04-02T00:20:09.196Z,0.60
2023-04-02T00:22:47.464Z,0.65
2023-04-02T00:25:18.715Z,0.70
2023-04-02T00:27:49.733Z,0.52
2023-04-02T00:30:19.773Z,0.73
2023-04-02T00:32:50.697Z,0.50
2023-04-02T00:35:28.458Z,1.00
2023-04-02T00:38:01.004Z,0.80
2023-04-02T00:40:32.874Z,0.70
2023-04-02T00:43:07.341Z,0.77
2023-04-02T00:45:43.247Z,0.52
2023-04-02T00:48:24.723Z,0.90
2023-04-02T00:50:56.176Z,0.85
2023-04-02T00:53:32.726Z,0.90
2023-04-02T00:56:13.880Z,0.50
2023-04-02T00:58:53.745Z,0.90
2023-04-02T01:01:37.238Z,0.70
2023-04-02T01:04:06.523Z,0.52
2023-04-02T01:06:39.686Z,0.65
2023-04-02T01:09:27.574Z,0.63
2023-04-02T01:12:32.094Z,0.32
2023-04-02T01:15:13.213Z,1.10
2023-04-02T01:18:02.747Z,0.57
2023-04-02T01:20:59.789Z,0.47
2023-04-02T01:23:37.182Z,0.63
2023-04-02T01:26:16.794Z,0.40
2023-04-02T01:29:03.920Z,0.80
2023-04-02T01:31:34.523Z,0.60
2023-04-02T01:34:07.117Z,0.55
2023-04-02T01:36:44.781Z,0.60
2023-04-02T01:39:23.202Z,1.10
2023-04-02T01:42:00.215Z,0.50
2023-04-02T01:44:37.321Z,0.88
2023-04-02T01:47:12.424Z,0.70
2023-04-02T01:49:43.473Z,0.80
2023-04-02T01:52:17.586Z,0.68
2023-04-02T01:54:47.312Z,0.70
2023-04-02T01:57:16.872Z,0.82
2023-04-02T01:59:47.333Z,0.40
2023-04-02T02:02:16.482Z,0.85
2023-04-02T02:04:45.358Z,0.68
2023-04-02T02:07:17.606Z,0.73
2023-04-02T02:09:51.007Z,1.27
2023-04-02T02:14:52.085Z,0.38
2023-04-02T02:17:29.590Z,0.50
2023-04-02T02:20:01.515Z,0.98
2023-04-02T02:22:32.800Z,1.33
2023-04-02T02:25:05.526Z,0.82
2023-04-02T02:28:06.502Z,0.98
2023-04-02T02:30:44.325Z,0.80
2023-04-02T02:33:20.801Z,1.10
2023-04-02T02:35:56.048Z,0.90
2023-04-02T02:38:57.100Z,0.65
2023-04-02T02:41:38.997Z,0.88
2023-04-02T02:44:18.370Z,0.43
2023-04-02T02:46:53.150Z,0.70
2023-04-02T02:49:28.393Z,0.60
2023-04-02T02:52:02.031Z,0.90
2023-04-02T02:57:14.941Z,0.98
2023-04-02T02:59:46.173Z,0.82
2023-04-02T03:02:17.921Z,1.17
2023-04-02T03:04:49.949Z,0.85
2023-04-02T03:07:22.068Z,0.70
2023-04-02T03:09:55.721Z,0.95
2023-04-02T03:12:37.582Z,1.00
2023-04-02T03:15:18.414Z,1.05
2023-04-02T03:17:55.436Z,0.80
2023-04-02T03:20:31.946Z,1.00
2023-04-02T03:23:07.895Z,0.85
2023-04-02T03:25:43.510Z,0.82
2023-04-02T03:28:18.315Z,1.02
2023-04-02T03:30:52.441Z,1.20
2023-04-02T03:33:30.422Z,1.10
2023-04-02T03:36:04.736Z,1.60
2023-04-02T03:38:43.659Z,0.80
2023-04-02T03:41:19.050Z,0.80
2023-04-02T03:43:51.081Z,0.90
2023-04-02T03:46:27.150Z,1.50
2023-04-02T03:49:01.491Z,0.90
2023-04-02T03:51:36.140Z,1.10
2023-04-02T03:54:07.890Z,1.30
2023-04-02T03:56:40.969Z,1.10
2023-04-02T03:59:21.183Z,0.88
2023-04-02T04:01:57.061Z,1.50
2023-04-02T04:04:29.876Z,1.52
2023-04-02T04:07:01.476Z,1.48
2023-04-02T04:09:33.710Z,1.00
2023-04-02T04:12:12.133Z,1.23
2023-04-02T04:14:46.023Z,1.77
2023-04-02T04:17:24.947Z,1.63
2023-04-02T04:20:08.340Z,1.25
2023-04-02T04:22:37.852Z,1.40
2023-04-02T04:25:26.646Z,1.38
2023-04-02T04:28:08.161Z,1.10
2023-04-02T04:30:50.970Z,1.38
2023-04-02T04:33:24.222Z,1.50
2023-04-02T04:36:00.999Z,2.10
2023-04-02T04:38:39.574Z,1.30
2023-04-02T04:41:15.944Z,1.42
2023-04-02T04:43:53.567Z,1.70
2023-04-02T04:46:29.621Z,1.70
2023-04-02T04:49:04.206Z,2.03
2023-04-02T04:51:40.408Z,2.05
2023-04-02T04:54:14.583Z,1.92
2023-04-02T04:56:48.665Z,1.85
2023-04-02T04:59:24.284Z,1.70
2023-04-02T05:02:03.973Z,2.00
2023-04-02T05:04:36.706Z,2.80
2023-04-02T05:07:11.996Z,1.60
2023-04-02T05:09:53.175Z,2.08
2023-04-02T05:12:35.283Z,1.83
2023-04-02T05:15:17.164Z,2.67
2023-04-02T05:20:25.906Z,2.25
2023-04-02T05:23:03.875Z,1.80
2023-04-02T05:25:34.212Z,1.65
2023-04-02T05:28:14.434Z,1.90
2023-04-02T05:30:52.642Z,2.33
2023-04-02T05:33:28.928Z,2.20
2023-04-02T05:36:03.986Z,1.58
2023-04-02T05:38:38.977Z,2.03
2023-04-02T05:41:18.512Z,2.10
2023-04-02T05:43:49.792Z,1.98
2023-04-02T05:46:23.716Z,2.03
2023-04-02T05:48:58.002Z,1.55
2023-04-02T05:51:36.320Z,1.90
2023-04-02T05:54:18.437Z,2.05
2023-04-02T05:56:50.743Z,2.05
2023-04-02T05:59:22.762Z,1.98
2023-04-02T06:01:58.980Z,1.77
2023-04-02T06:04:38.934Z,2.72
2023-04-02T06:07:12.713Z,2.15
2023-04-02T06:09:54.828Z,1.70
2023-04-02T06:12:31.193Z,2.00
2023-04-02T06:15:01.558Z,2.28
2023-04-02T06:17:44.265Z,2.38
2023-04-02T06:20:17.644Z,1.70
2023-04-02T06:22:52.381Z,2.13
2023-04-02T06:25:28.632Z,1.67
2023-04-02T06:28:01.650Z,2.10
2023-04-02T06:30:34.250Z,1.85
2023-04-02T06:33:04.098Z,1.50
2023-04-02T06:35:38.820Z,1.77
2023-04-02T06:38:18.469Z,2.33
2023-04-02T06:40:51.444Z,2.08
2023-04-02T06:43:40.459Z,1.65
2023-04-02T06:46:39.909Z,1.60
2023-04-02T06:49:20.879Z,1.67
2023-04-02T06:51:54.281Z,1.55
2023-04-02T06:54:23.206Z,2.17
2023-04-02T06:56:58.202Z,1.73
2023-04-02T06:59:32.356Z,1.60
2023-04-02T07:02:06.720Z,1.83
2023-04-02T07:04:35.778Z,2.70
2023-04-02T07:07:04.685Z,2.00
2023-04-02T07:09:38.489Z,1.52
2023-04-02T07:12:14.128Z,1.55
2023-04-02T07:14:44.098Z,1.30
2023-04-02T07:17:17.364Z,1.20
2023-04-02T07:19:49.729Z,1.58
2023-04-02T07:22:22.174Z,1.90
2023-04-02T07:24:55.495Z,1.50
2023-04-02T07:27:25.059Z,1.42
2023-04-02T07:32:25.603Z,1.63
2023-04-02T07:34:54.657Z,1.35
2023-04-02T07:37:24.381Z,2.05
2023-04-02T07:39:52.599Z,1.50
2023-04-02T07:42:22.348Z,1.77
2023-04-02T07:44:53.535Z,1.08
2023-04-02T07:49:54.702Z,1.80
2023-04-02T07:52:23.362Z,1.38
2023-04-02T07:54:51.481Z,1.95
2023-04-02T07:57:21.437Z,1.55
2023-04-02T07:59:50.785Z,2.00
2023-04-02T08:02:24.415Z,1.75
2023-04-02T08:04:52.932Z,1.33
2023-04-02T08:07:21.934Z,1.55
2023-04-02T08:09:50.422Z,1.55
2023-04-02T08:12:18.800Z,1.63
2023-04-02T08:14:47.061Z,1.40
2023-04-02T08:17:17.505Z,1.42
2023-04-02T08:19:54.613Z,1.27
2023-04-02T08:22:23.961Z,1.60
2023-04-02T08:24:53.803Z,1.30
2023-04-02T08:27:22.549Z,1.55
2023-04-02T08:29:52.296Z,1.80
2023-04-02T08:32:22.156Z,1.27
2023-04-02T08:34:53.564Z,1.38
2023-04-02T08:37:21.985Z,1.13
2023-04-02T08:39:50.586Z,1.52
2023-04-02T08:42:28.082Z,1.58
2023-04-02T08:45:23.471Z,1.30
2023-04-02T08:47:57.348Z,1.30
2023-04-02T08:50:33.561Z,1.02
2023-04-02T08:53:05.875Z,1.48
2023-04-02T08:55:39.757Z,1.52
2023-04-02T08:58:22.197Z,1.35
2023-04-02T09:00:55.751Z,1.60
2023-04-02T09:03:30.349Z,1.67
2023-04-02T09:06:03.653Z,1.70
2023-04-02T09:08:35.872Z,1.63
2023-04-02T09:11:09.175Z,1.25
2023-04-02T09:13:44.395Z,1.52
2023-04-02T09:16:14.624Z,1.42
2023-04-02T09:18:44.460Z,1.60
2023-04-02T09:21:32.137Z,1.35
2023-04-02T09:24:00.593Z,1.98
2023-04-02T09:26:32.023Z,1.77
2023-04-02T09:29:10.975Z,0.47
2023-04-02T09:31:47.589Z,0.10
2023-04-02T09:34:31.025Z,0.15
2023-04-02T09:37:09.901Z,0.00
2023-04-02T09:39:38.545Z,0.10
2023-04-02T09:42:09.329Z,0.20
2023-04-02T09:44:38.100Z,0.00
2023-04-02T09:47:24.143Z,0.15
2023-04-02T09:49:53.192Z,0.03
2023-04-02T09:52:29.071Z,0.10
2023-04-02T09:55:19.297Z,0.15
2023-04-02T09:57:51.077Z,0.00
2023-04-02T10:03:04.859Z,0.20
2023-04-02T10:08:21.077Z,0.20
2023-04-02T10:10:52.507Z,0.00
2023-04-02T10:13:27.174Z,0.03
2023-04-02T10:16:01.130Z,0.20
2023-04-02T10:18:39.706Z,0.00
2023-04-02T10:21:11.479Z,0.15
2023-04-02T10:23:41.702Z,0.22
2023-04-02T10:26:46.847Z,0.05
2023-04-02T10:29:35.741Z,0.13
2023-04-02T10:32:16.265Z,0.47
2023-04-02T10:34:50.843Z,0.00
2023-04-02T10:37:55.212Z,0.00
2023-04-02T10:40:29.697Z,0.20
2023-04-02T10:43:31.766Z,0.05
2023-04-02T10:46:03.969Z,0.10
2023-04-02T10:48:40.355Z,0.10
2023-04-02T10:51:18.787Z,0.10
2023-04-02T10:53:58.754Z,0.10
2023-04-02T10:56:37.753Z,0.00
2023-04-02T10:59:19.562Z,0.00
2023-04-02T11:01:50.114Z,0.20
2023-04-02T11:04:23.755Z,0.03
2023-04-02T11:07:07.019Z,0.17
2023-04-02T11:09:42.859Z,0.10
2023-04-02T11:12:21.813Z,0.25
2023-04-02T11:14:52.477Z,0.00
2023-04-02T11:17:21.825Z,0.10
2023-04-02T11:19:50.266Z,0.30
2023-04-02T11:22:23.159Z,0.10
2023-04-02T11:24:53.431Z,0.10
2023-04-02T11:27:29.161Z,0.20
2023-04-02T11:30:06.286Z,0.10
2023-04-02T11:32:45.360Z,0.28
2023-04-02T11:35:38.790Z,0.17
2023-04-02T11:38:51.726Z,0.13
2023-04-02T11:42:04.133Z,0.13
2023-04-02T11:44:34.120Z,0.13
2023-04-02T11:47:18.201Z,0.10
2023-04-02T11:50:28.583Z,0.10
2023-04-02T11:53:03.252Z,0.10
2023-04-02T11:55:33.292Z,0.10
2023-04-02T11:58:26.647Z,0.20
2023-04-02T12:01:23.954Z,0.13
2023-04-02T12:04:17.805Z,0.00
2023-04-02T12:06:59.899Z,0.20
2023-04-02T12:09:30.041Z,0.05
2023-04-02T12:12:01.291Z,0.10
2023-04-02T12:14:42.708Z,0.10
2023-04-02T12:17:25.047Z,0.10
2023-04-02T12:19:59.810Z,0.10
2023-04-02T12:22:30.812Z,0.03
2023-04-02T12:25:01.999Z,0.00
2023-04-02T12:27:31.796Z,0.57
2023-04-02T12:30:14.730Z,0.10
2023-04-02T12:32:44.550Z,0.13
2023-04-02T12:37:57.136Z,0.10
2023-04-02T12:40:27.292Z,0.40
2023-04-02T12:42:55.571Z,0.20
2023-04-02T12:45:29.568Z,0.10
2023-04-02T12:48:04.046Z,0.08
2023-04-02T12:50:35.333Z,0.10
2023-04-02T12:53:04.255Z,0.10
2023-04-02T12:55:33.524Z,0.10
2023-04-02T12:58:01.904Z,0.40
2023-04-02T13:00:37.081Z,0.30
2023-04-02T13:03:20.415Z,0.20
2023-04-02T13:05:54.596Z,0.25
2023-04-02T13:08:27.240Z,0.63
2023-04-02T13:10:58.930Z,0.30
2023-04-02T13:13:31.471Z,0.30
2023-04-02T13:16:24.252Z,0.20
2023-04-02T13:19:10.895Z,0.47
2023-04-02T13:21:39.315Z,0.45
2023-04-02T13:24:18.447Z,0.30
2023-04-02T13:26:48.202Z,0.50
2023-04-02T13:29:21.647Z,0.40
2023-04-02T13:31:50.742Z,0.20
2023-04-02T13:34:21.799Z,0.28
2023-04-02T13:36:50.645Z,0.28
2023-04-02T13:39:20.792Z,0.20
2023-04-02T13:41:52.548Z,0.25
2023-04-02T13:44:25.481Z,0.20
2023-04-02T13:46:58.013Z,0.30
2023-04-02T13:49:28.910Z,0.30
2023-04-02T13:52:03.252Z,0.20
2023-04-02T13:54:35.028Z,0.25
2023-04-02T13:57:06.281Z,0.30
2023-04-02T13:59:35.043Z,0.27
2023-04-02T14:02:07.657Z,0.30
2023-04-02T14:04:41.617Z,0.30
2023-04-02T14:07:34.405Z,0.60
2023-04-02T14:10:14.938Z,0.40
2023-04-02T14:12:57.286Z,0.35
2023-04-02T14:15:37.361Z,0.50
2023-04-02T14:18:31.977Z,0.60
2023-04-02T14:21:12.449Z,0.82
2023-04-02T14:23:55.988Z,1.38
2023-04-02T14:26:33.289Z,0.60
2023-04-02T14:29:07.904Z,0.90
2023-04-02T14:31:39.967Z,1.20
2023-04-02T14:34:19.225Z,0.95
2023-04-02T14:36:59.740Z,0.75
2023-04-02T14:39:40.556Z,0.90
2023-04-02T14:42:15.696Z,1.13
2023-04-02T14:44:51.522Z,1.13
2023-04-02T14:47:25.322Z,0.82
2023-04-02T14:49:58.420Z,1.20
2023-04-02T14:52:32.758Z,0.60
2023-04-02T14:55:04.970Z,0.68
2023-04-02T14:57:38.538Z,0.70
2023-04-02T15:00:24.475Z,0.85
2023-04-02T15:02:58.324Z,0.80
2023-04-02T15:05:34.376Z,0.90
2023-04-02T15:08:08.074Z,1.13
2023-04-02T15:10:45.741Z,0.70
2023-04-02T15:13:21.400Z,0.98
2023-04-02T15:15:57.667Z,1.17
2023-04-02T15:18:26.899Z,1.05
2023-04-02T15:21:04.023Z,1.10
2023-04-02T15:23:56.042Z,1.55
2023-04-02T15:26:30.920Z,1.40
2023-04-02T15:29:25.796Z,1.35
2023-04-02T15:32:08.327Z,0.77
2023-04-02T15:34:42.081Z,1.23
2023-04-02T15:37:24.549Z,1.58
2023-04-02T15:40:08.990Z,1.42
2023-04-02T15:42:40.706Z,2.08
2023-04-02T15:45:44.637Z,1.98
2023-04-02T15:48:41.778Z,1.70
2023-04-02T15:51:22.922Z,1.20
2023-04-02T15:54:01.095Z,2.10
2023-04-02T15:56:41.896Z,1.73
2023-04-02T15:59:36.036Z,2.20
2023-04-02T16:02:25.061Z,1.80
2023-04-02T16:05:04.821Z,2.20
2023-04-02T16:08:11.072Z,1.88
2023-04-02T16:10:42.881Z,1.70
2023-04-02T16:13:27.083Z,1.70
2023-04-02T16:16:02.842Z,1.80
2023-04-02T16:18:41.863Z,1.95
2023-04-02T16:21:13.400Z,2.10
2023-04-02T16:23:42.567Z,2.65
2023-04-02T16:26:39.901Z,2.58
2023-04-02T16:29:27.570Z,1.60
2023-04-02T16:32:03.367Z,1.85
2023-04-02T16:34:43.558Z,1.58
2023-04-02T16:37:23.505Z,2.17
2023-04-02T16:39:58.125Z,2.10
2023-04-02T16:42:36.354Z,2.17
2023-04-02T16:45:24.733Z,1.70
2023-04-02T16:48:04.546Z,1.92
2023-04-02T16:53:25.732Z,1.90
2023-04-02T16:56:09.340Z,1.88
2023-04-02T16:58:51.271Z,1.77
2023-04-02T17:01:28.958Z,1.50
2023-04-02T17:04:09.267Z,1.80
2023-04-02T17:06:43.245Z,1.55
2023-04-02T17:09:19.610Z,1.52
2023-04-02T17:11:51.402Z,1.95
2023-04-02T17:14:28.456Z,2.33
2023-04-02T17:17:03.064Z,1.73
2023-04-02T17:19:32.952Z,1.65
2023-04-02T17:24:42.080Z,1.90
2023-04-02T17:27:22.058Z,1.65
2023-04-02T17:29:53.991Z,1.20
2023-04-02T17:32:29.630Z,1.23
2023-04-02T17:35:17.196Z,1.20
2023-04-02T17:37:52.401Z,1.35
2023-04-02T17:40:30.557Z,1.08
2023-04-02T17:43:06.851Z,1.50
2023-04-02T17:45:42.668Z,1.55
2023-04-02T17:48:22.671Z,1.08
2023-04-02T17:51:00.417Z,1.08
2023-04-02T17:53:47.510Z,1.88
2023-04-02T17:56:27.992Z,1.48
2023-04-02T17:59:30.529Z,1.48
2023-04-02T18:02:07.659Z,1.40
2023-04-02T18:04:50.648Z,1.00
2023-04-02T18:07:31.923Z,0.95
2023-04-02T18:10:08.702Z,0.88
2023-04-02T18:12:55.279Z,0.90
2023-04-02T18:15:53.733Z,0.85
2023-04-02T18:18:49.543Z,1.02
2023-04-02T18:21:26.338Z,1.30
2023-04-02T18:24:08.286Z,0.85
2023-04-02T18:26:44.870Z,1.13
2023-04-02T18:29:26.110Z,1.00
2023-04-02T18:32:05.665Z,1.23
2023-04-02T18:34:46.337Z,0.80
2023-04-02T18:37:37.955Z,1.23
2023-04-02T18:40:22.053Z,1.17
2023-04-02T18:43:03.110Z,0.88
2023-04-02T18:48:19.795Z,1.15
2023-04-02T18:50:49.701Z,0.80
2023-04-02T18:55:55.403Z,0.80
2023-04-02T18:58:28.390Z,1.52
2023-04-02T19:01:00.481Z,1.00
2023-04-02T19:03:32.423Z,1.25
2023-04-02T19:06:03.133Z,0.88
2023-04-02T19:08:39.212Z,1.00
2023-04-02T19:11:12.470Z,0.90
2023-04-02T19:13:42.100Z,0.50
2023-04-02T19:16:30.000Z,0.65
2023-04-02T19:19:10.302Z,0.88
2023-04-02T19:21:47.456Z,1.05
2023-04-02T19:24:30.616Z,1.33
2023-04-02T19:27:06.913Z,0.80
2023-04-02T19:29:45.359Z,0.80
2023-04-02T19:32:27.249Z,0.88
2023-04-02T19:35:01.851Z,0.82
2023-04-02T19:37:38.120Z,0.85
2023-04-02T19:40:21.019Z,1.00
2023-04-02T19:42:51.048Z,0.70
2023-04-02T19:45:34.815Z,0.63
2023-04-02T19:48:12.402Z,0.80
2023-04-02T19:50:41.628Z,0.47
2023-04-02T19:53:10.666Z,1.40
2023-04-02T19:55:42.458Z,0.77
2023-04-02T19:58:20.119Z,1.02
2023-04-02T20:00:49.774Z,1.02
2023-04-02T20:03:18.450Z,1.10
2023-04-02T20:05:47.328Z,0.95
2023-04-02T20:08:16.099Z,1.13
2023-04-02T20:10:46.714Z,0.60
2023-04-02T20:13:15.581Z,0.98
2023-04-02T20:15:44.348Z,1.05
2023-04-02T20:18:12.521Z,1.13
2023-04-02T20:20:50.418Z,1.05
2023-04-02T20:23:18.842Z,0.80
2023-04-02T20:25:53.015Z,1.58
2023-04-02T20:28:21.611Z,0.88
2023-04-02T20:30:50.934Z,1.13
2023-04-02T20:33:20.085Z,1.45
2023-04-02T20:35:50.710Z,0.82
2023-04-02T20:38:19.908Z,0.70
2023-04-02T20:40:52.895Z,1.02
2023-04-02T20:43:21.502Z,0.77
2023-04-02T20:46:04.278Z,1.23
2023-04-02T20:48:33.939Z,1.15
2023-04-02T20:51:04.499Z,1.02
2023-04-02T20:53:34.525Z,0.90
2023-04-02T20:56:06.677Z,1.27
2023-04-02T20:58:36.544Z,1.30
2023-04-02T21:01:10.631Z,0.90
2023-04-02T21:03:41.984Z,1.20
2023-04-02T21:06:14.387Z,1.13
2023-04-02T21:08:44.069Z,1.10
2023-04-02T21:11:14.544Z,1.10
2023-04-02T21:13:44.223Z,1.08
2023-04-02T21:18:42.414Z,1.20
2023-04-02T21:21:13.522Z,0.95
2023-04-02T21:23:43.607Z,1.20
2023-04-02T21:28:44.850Z,0.55
2023-04-02T21:31:15.822Z,0.95
2023-04-02T21:33:46.348Z,0.95
2023-04-02T21:36:17.784Z,1.05
2023-04-02T21:38:49.356Z,0.80
2023-04-02T21:41:22.190Z,1.15
2023-04-02T21:43:51.456Z,0.68
2023-04-02T21:46:22.381Z,1.35
2023-04-02T21:48:52.127Z,0.80
2023-04-02T21:51:23.027Z,0.70
2023-04-02T21:53:54.221Z,0.82
2023-04-02T21:56:26.299Z,0.80
2023-04-02T21:58:58.524Z,1.20
2023-04-02T22:01:29.991Z,0.93
2023-04-02T22:04:01.052Z,1.38
2023-04-02T22:06:32.558Z,0.90
2023-04-02T22:09:02.978Z,0.70
2023-04-02T22:11:36.459Z,1.00
2023-04-02T22:14:05.819Z,0.80
2023-04-02T22:16:36.494Z,1.10
2023-04-02T22:19:08.895Z,0.95
2023-04-02T22:21:38.569Z,0.98
2023-04-02T22:24:10.401Z,0.70
2023-04-02T22:26:41.037Z,1.20
2023-04-02T22:29:09.596Z,1.02
2023-04-02T22:31:38.998Z,0.88
2023-04-02T22:34:11.480Z,0.70
2023-04-02T22:36:39.683Z,1.33
2023-04-02T22:39:12.377Z,0.75
2023-04-02T22:41:44.076Z,0.80
2023-04-02T22:44:15.865Z,0.82
2023-04-02T22:46:44.455Z,0.90
2023-04-02T22:49:19.129Z,0.60
2023-04-02T22:51:50.078Z,1.42
2023-04-02T22:54:19.209Z,0.90
2023-04-02T22:56:48.861Z,0.70
2023-04-02T23:01:45.936Z,0.65
2023-04-02T23:04:14.433Z,0.77
2023-04-02T23:06:43.198Z,0.40
2023-04-02T23:09:12.068Z,1.00
2023-04-02T23:11:40.628Z,0.60
2023-04-02T23:14:10.534Z,0.50
2023-04-02T23:16:39.204Z,0.73
2023-04-02T23:19:07.349Z,0.70
2023-04-02T23:21:36.039Z,0.90
2023-04-02T23:24:04.418Z,0.70
2023-04-02T23:26:32.978Z,0.60
2023-04-02T23:29:03.327Z,0.90
2023-04-02T23:31:35.535Z,0.70
2023-04-02T23:34:04.363Z,1.40
2023-04-02T23:36:34.337Z,0.90
2023-04-02T23:39:09.573Z,1.02
2023-04-02T23:41:40.086Z,0.77
2023-04-02T23:44:08.683Z,1.20
2023-04-02T23:46:38.666Z,0.95
2023-04-02T23:49:08.272Z,1.23
2023-04-02T23:51:37.931Z,0.93
2023-04-02T23:54:07.750Z,1.10
2023-04-02T23:56:36.114Z,1.02
2023-04-02T23:59:05.063Z,1.58
